sensor_id;sensor_type;location;lat;lon;timestamp;pressure;altitude;pressure_sealevel;temperature;humidity
5966;BME280;3009;43.224;27.976;2022-10-30T00:00:41;101171.19;;;10.91;100.00
5966;BME280;3009;43.224;27.976;2022-10-30T00:03:11;101160.75;;;10.90;100.00
5966;BME280;3009;43.224;27.976;2022-10-30T00:05:41;101159.38;;;10.92;100.00
5966;BME280;3009;43.224;27.976;2022-10-30T00:08:10;101162.63;;;10.89;100.00
5966;BME280;3009;43.224;27.976;2022-10-30T00:10:39;101157.13;;;10.80;100.00
5966;BME280;3009;43.224;27.976;2022-10-30T00:13:09;101158.28;;;10.74;100.00
5966;BME280;3009;43.224;27.976;2022-10-30T00:15:38;101157.25;;;10.70;100.00
5966;BME280;3009;43.224;27.976;2022-10-30T00:18:06;101157.03;;;10.67;100.00
5966;BME280;3009;43.224;27.976;2022-10-30T00:20:35;101155.72;;;10.64;100.00
5966;BME280;3009;43.224;27.976;2022-10-30T00:23:03;101148.06;;;10.57;100.00
5966;BME280;3009;43.224;27.976;2022-10-30T00:25:34;101147.03;;;10.53;100.00
5966;BME280;3009;43.224;27.976;2022-10-30T00:28:03;101139.81;;;10.54;100.00
5966;BME280;3009;43.224;27.976;2022-10-30T00:30:33;101130.72;;;10.50;100.00
5966;BME280;3009;43.224;27.976;2022-10-30T00:33:02;101136.00;;;10.55;100.00
5966;BME280;3009;43.224;27.976;2022-10-30T00:35:31;101138.66;;;10.60;100.00
5966;BME280;3009;43.224;27.976;2022-10-30T00:37:59;101140.22;;;10.61;100.00
5966;BME280;3009;43.224;27.976;2022-10-30T00:40:28;101127.97;;;10.55;100.00
5966;BME280;3009;43.224;27.976;2022-10-30T00:42:56;101129.63;;;10.51;100.00
5966;BME280;3009;43.224;27.976;2022-10-30T00:45:24;101121.22;;;10.38;100.00
5966;BME280;3009;43.224;27.976;2022-10-30T00:47:56;101121.00;;;10.29;100.00
5966;BME280;3009;43.224;27.976;2022-10-30T00:50:29;101123.78;;;10.24;100.00
5966;BME280;3009;43.224;27.976;2022-10-30T00:53:01;101126.00;;;10.17;100.00
5966;BME280;3009;43.224;27.976;2022-10-30T00:55:32;101120.75;;;10.07;100.00
5966;BME280;3009;43.224;27.976;2022-10-30T00:58:02;101120.53;;;10.03;100.00
5966;BME280;3009;43.224;27.976;2022-10-30T01:00:35;101109.03;;;10.03;100.00
5966;BME280;3009;43.224;27.976;2022-10-30T01:03:08;101110.41;;;10.00;100.00
5966;BME280;3009;43.224;27.976;2022-10-30T01:05:36;101111.44;;;10.04;100.00
5966;BME280;3009;43.224;27.976;2022-10-30T01:08:05;101096.13;;;10.05;100.00
5966;BME280;3009;43.224;27.976;2022-10-30T01:10:34;101107.63;;;10.05;100.00
5966;BME280;3009;43.224;27.976;2022-10-30T01:13:02;101100.72;;;10.04;100.00
5966;BME280;3009;43.224;27.976;2022-10-30T01:15:33;101097.47;;;10.07;100.00
5966;BME280;3009;43.224;27.976;2022-10-30T01:18:25;101097.28;;;9.99;100.00
5966;BME280;3009;43.224;27.976;2022-10-30T01:21:25;101092.50;;;9.96;100.00
5966;BME280;3009;43.224;27.976;2022-10-30T01:24:09;101086.47;;;9.85;100.00
5966;BME280;3009;43.224;27.976;2022-10-30T01:26:46;101085.78;;;9.74;100.00
5966;BME280;3009;43.224;27.976;2022-10-30T01:29:26;101080.75;;;9.67;100.00
5966;BME280;3009;43.224;27.976;2022-10-30T01:32:11;101082.13;;;9.65;100.00
5966;BME280;3009;43.224;27.976;2022-10-30T01:34:56;101082.41;;;9.63;100.00
5966;BME280;3009;43.224;27.976;2022-10-30T01:37:31;101082.00;;;9.51;100.00
5966;BME280;3009;43.224;27.976;2022-10-30T01:40:04;101076.19;;;9.44;100.00
5966;BME280;3009;43.224;27.976;2022-10-30T01:42:45;101070.59;;;9.40;100.00
5966;BME280;3009;43.224;27.976;2022-10-30T01:45:18;101067.97;;;9.35;100.00
5966;BME280;3009;43.224;27.976;2022-10-30T01:48:13;101069.88;;;9.29;100.00
5966;BME280;3009;43.224;27.976;2022-10-30T01:50:50;101068.97;;;9.39;100.00
5966;BME280;3009;43.224;27.976;2022-10-30T01:53:30;101062.28;;;9.42;100.00
5966;BME280;3009;43.224;27.976;2022-10-30T01:56:14;101057.59;;;9.52;100.00
5966;BME280;3009;43.224;27.976;2022-10-30T01:58:50;101059.44;;;9.57;100.00
5966;BME280;3009;43.224;27.976;2022-10-30T02:01:23;101059.72;;;9.55;100.00
5966;BME280;3009;43.224;27.976;2022-10-30T02:03:52;101057.03;;;9.55;100.00
5966;BME280;3009;43.224;27.976;2022-10-30T02:06:22;101060.81;;;9.79;100.00
5966;BME280;3009;43.224;27.976;2022-10-30T02:08:50;101061.81;;;10.07;100.00
5966;BME280;3009;43.224;27.976;2022-10-30T02:11:21;101069.59;;;10.27;100.00
5966;BME280;3009;43.224;27.976;2022-10-30T02:13:52;101069.19;;;10.39;100.00
5966;BME280;3009;43.224;27.976;2022-10-30T02:16:22;101070.56;;;10.37;100.00
5966;BME280;3009;43.224;27.976;2022-10-30T02:18:50;101069.31;;;10.29;100.00
5966;BME280;3009;43.224;27.976;2022-10-30T02:21:19;101068.94;;;10.17;100.00
5966;BME280;3009;43.224;27.976;2022-10-30T02:23:47;101066.66;;;10.05;100.00
5966;BME280;3009;43.224;27.976;2022-10-30T02:26:16;101073.66;;;9.82;100.00
5966;BME280;3009;43.224;27.976;2022-10-30T02:28:44;101080.06;;;9.81;100.00
5966;BME280;3009;43.224;27.976;2022-10-30T02:31:12;101073.69;;;9.76;100.00
5966;BME280;3009;43.224;27.976;2022-10-30T02:33:43;101066.97;;;9.79;100.00
5966;BME280;3009;43.224;27.976;2022-10-30T02:36:12;101061.81;;;9.83;100.00
5966;BME280;3009;43.224;27.976;2022-10-30T02:38:43;101061.03;;;9.82;100.00
5966;BME280;3009;43.224;27.976;2022-10-30T02:41:11;101063.53;;;9.73;100.00
5966;BME280;3009;43.224;27.976;2022-10-30T02:43:39;101060.66;;;9.70;100.00
5966;BME280;3009;43.224;27.976;2022-10-30T02:46:08;101056.31;;;9.74;100.00
5966;BME280;3009;43.224;27.976;2022-10-30T02:48:36;101048.97;;;9.85;100.00
5966;BME280;3009;43.224;27.976;2022-10-30T02:51:04;101058.06;;;9.84;100.00
5966;BME280;3009;43.224;27.976;2022-10-30T02:53:33;101056.88;;;9.95;100.00
5966;BME280;3009;43.224;27.976;2022-10-30T02:56:07;101059.41;;;10.05;100.00
5966;BME280;3009;43.224;27.976;2022-10-30T02:58:35;101049.50;;;10.06;100.00
5966;BME280;3009;43.224;27.976;2022-10-30T03:01:05;101048.16;;;10.08;100.00
5966;BME280;3009;43.224;27.976;2022-10-30T03:03:33;101055.75;;;10.01;100.00
5966;BME280;3009;43.224;27.976;2022-10-30T03:06:04;101052.31;;;9.96;100.00
5966;BME280;3009;43.224;27.976;2022-10-30T03:08:32;101054.78;;;9.92;100.00
5966;BME280;3009;43.224;27.976;2022-10-30T03:11:01;101058.16;;;9.98;100.00
5966;BME280;3009;43.224;27.976;2022-10-30T03:13:32;101052.03;;;9.97;100.00
5966;BME280;3009;43.224;27.976;2022-10-30T03:16:01;101047.59;;;9.87;100.00
5966;BME280;3009;43.224;27.976;2022-10-30T03:18:29;101057.69;;;9.71;100.00
5966;BME280;3009;43.224;27.976;2022-10-30T03:20:58;101055.06;;;9.66;100.00
5966;BME280;3009;43.224;27.976;2022-10-30T03:23:27;101053.88;;;9.78;100.00
5966;BME280;3009;43.224;27.976;2022-10-30T03:25:57;101049.47;;;9.87;100.00
5966;BME280;3009;43.224;27.976;2022-10-30T03:28:27;101050.13;;;9.79;100.00
5966;BME280;3009;43.224;27.976;2022-10-30T03:31:01;101047.75;;;9.72;100.00
5966;BME280;3009;43.224;27.976;2022-10-30T03:33:30;101044.66;;;9.65;100.00
5966;BME280;3009;43.224;27.976;2022-10-30T03:35:59;101050.78;;;9.65;100.00
5966;BME280;3009;43.224;27.976;2022-10-30T03:38:27;101048.72;;;9.57;100.00
5966;BME280;3009;43.224;27.976;2022-10-30T03:40:55;101044.41;;;9.61;100.00
5966;BME280;3009;43.224;27.976;2022-10-30T03:43:24;101040.00;;;9.70;100.00
5966;BME280;3009;43.224;27.976;2022-10-30T03:45:53;101046.56;;;9.59;100.00
5966;BME280;3009;43.224;27.976;2022-10-30T03:48:25;101050.00;;;9.65;100.00
5966;BME280;3009;43.224;27.976;2022-10-30T03:50:54;101041.53;;;9.76;100.00
5966;BME280;3009;43.224;27.976;2022-10-30T03:53:23;101036.19;;;9.76;100.00
5966;BME280;3009;43.224;27.976;2022-10-30T03:55:55;101036.75;;;9.73;100.00
5966;BME280;3009;43.224;27.976;2022-10-30T03:58:24;101035.22;;;9.67;100.00
5966;BME280;3009;43.224;27.976;2022-10-30T04:00:52;101026.63;;;9.70;100.00
5966;BME280;3009;43.224;27.976;2022-10-30T04:03:20;101025.84;;;9.70;100.00
5966;BME280;3009;43.224;27.976;2022-10-30T04:05:51;101028.13;;;9.57;100.00
5966;BME280;3009;43.224;27.976;2022-10-30T04:08:20;101033.59;;;9.47;100.00
5966;BME280;3009;43.224;27.976;2022-10-30T04:10:48;101028.97;;;9.29;100.00
5966;BME280;3009;43.224;27.976;2022-10-30T04:13:16;101026.69;;;9.12;100.00
5966;BME280;3009;43.224;27.976;2022-10-30T04:15:46;101023.59;;;8.99;100.00
5966;BME280;3009;43.224;27.976;2022-10-30T04:18:23;101029.59;;;8.86;100.00
5966;BME280;3009;43.224;27.976;2022-10-30T04:20:53;101024.38;;;8.71;100.00
5966;BME280;3009;43.224;27.976;2022-10-30T04:23:21;101030.78;;;8.69;100.00
5966;BME280;3009;43.224;27.976;2022-10-30T04:25:49;101029.97;;;8.74;100.00
5966;BME280;3009;43.224;27.976;2022-10-30T04:28:17;101030.72;;;8.80;100.00
5966;BME280;3009;43.224;27.976;2022-10-30T04:30:47;101033.03;;;8.92;100.00
5966;BME280;3009;43.224;27.976;2022-10-30T04:33:15;101024.56;;;9.09;100.00
5966;BME280;3009;43.224;27.976;2022-10-30T04:35:44;101024.47;;;9.24;100.00
5966;BME280;3009;43.224;27.976;2022-10-30T04:38:14;101019.84;;;9.30;100.00
5966;BME280;3009;43.224;27.976;2022-10-30T04:40:44;101035.00;;;9.39;100.00
5966;BME280;3009;43.224;27.976;2022-10-30T04:43:13;101026.34;;;9.48;100.00
5966;BME280;3009;43.224;27.976;2022-10-30T04:45:41;101021.53;;;9.50;100.00
5966;BME280;3009;43.224;27.976;2022-10-30T04:48:11;101030.25;;;9.31;100.00
5966;BME280;3009;43.224;27.976;2022-10-30T04:50:39;101033.50;;;9.28;100.00
5966;BME280;3009;43.224;27.976;2022-10-30T04:53:11;101031.25;;;9.40;100.00
5966;BME280;3009;43.224;27.976;2022-10-30T04:55:41;101027.25;;;9.38;100.00
5966;BME280;3009;43.224;27.976;2022-10-30T04:58:11;101027.53;;;9.36;100.00
5966;BME280;3009;43.224;27.976;2022-10-30T05:00:39;101035.78;;;9.40;100.00
5966;BME280;3009;43.224;27.976;2022-10-30T05:03:10;101032.72;;;9.52;100.00
5966;BME280;3009;43.224;27.976;2022-10-30T05:05:43;101024.91;;;9.80;98.70
5966;BME280;3009;43.224;27.976;2022-10-30T05:08:11;101017.31;;;9.87;98.17
5966;BME280;3009;43.224;27.976;2022-10-30T05:10:40;101030.09;;;9.95;98.48
5966;BME280;3009;43.224;27.976;2022-10-30T05:13:09;101027.25;;;10.05;99.32
5966;BME280;3009;43.224;27.976;2022-10-30T05:15:38;101027.94;;;10.16;99.87
5966;BME280;3009;43.224;27.976;2022-10-30T05:18:06;101025.34;;;10.30;99.56
5966;BME280;3009;43.224;27.976;2022-10-30T05:20:34;101023.53;;;10.44;98.20
5966;BME280;3009;43.224;27.976;2022-10-30T05:23:03;101020.72;;;10.55;97.04
5966;BME280;3009;43.224;27.976;2022-10-30T05:25:31;101022.66;;;10.68;96.34
5966;BME280;3009;43.224;27.976;2022-10-30T05:28:02;101021.13;;;10.81;95.83
5966;BME280;3009;43.224;27.976;2022-10-30T05:30:32;101025.81;;;10.89;95.56
5966;BME280;3009;43.224;27.976;2022-10-30T05:33:02;101032.09;;;10.98;95.01
5966;BME280;3009;43.224;27.976;2022-10-30T05:35:31;101031.53;;;11.15;94.27
5966;BME280;3009;43.224;27.976;2022-10-30T05:38:00;101029.38;;;11.31;92.36
5966;BME280;3009;43.224;27.976;2022-10-30T05:40:28;101036.53;;;11.36;91.59
5966;BME280;3009;43.224;27.976;2022-10-30T05:42:56;101040.53;;;11.39;91.34
5966;BME280;3009;43.224;27.976;2022-10-30T05:45:27;101041.22;;;11.44;91.23
5966;BME280;3009;43.224;27.976;2022-10-30T05:47:56;101040.94;;;11.46;91.57
5966;BME280;3009;43.224;27.976;2022-10-30T05:50:26;101041.44;;;11.48;91.93
5966;BME280;3009;43.224;27.976;2022-10-30T05:52:55;101044.72;;;11.59;91.78
5966;BME280;3009;43.224;27.976;2022-10-30T05:55:24;101042.91;;;11.68;91.44
5966;BME280;3009;43.224;27.976;2022-10-30T05:57:55;101049.09;;;11.82;89.52
5966;BME280;3009;43.224;27.976;2022-10-30T06:00:24;101052.59;;;11.97;90.19
5966;BME280;3009;43.224;27.976;2022-10-30T06:02:59;101048.91;;;12.07;89.61
5966;BME280;3009;43.224;27.976;2022-10-30T06:05:29;101042.00;;;12.14;89.42
5966;BME280;3009;43.224;27.976;2022-10-30T06:07:58;101037.03;;;12.21;89.15
5966;BME280;3009;43.224;27.976;2022-10-30T06:10:27;101038.97;;;12.30;88.42
5966;BME280;3009;43.224;27.976;2022-10-30T06:12:56;101033.38;;;12.40;88.09
5966;BME280;3009;43.224;27.976;2022-10-30T06:15:26;101040.63;;;12.53;87.50
5966;BME280;3009;43.224;27.976;2022-10-30T06:17:55;101038.16;;;12.66;87.66
5966;BME280;3009;43.224;27.976;2022-10-30T06:20:28;101026.34;;;12.75;87.27
5966;BME280;3009;43.224;27.976;2022-10-30T06:22:58;101029.09;;;12.84;87.75
5966;BME280;3009;43.224;27.976;2022-10-30T06:25:27;101039.47;;;12.91;88.01
5966;BME280;3009;43.224;27.976;2022-10-30T06:27:56;101046.31;;;12.97;88.59
5966;BME280;3009;43.224;27.976;2022-10-30T06:30:25;101043.78;;;13.01;89.38
5966;BME280;3009;43.224;27.976;2022-10-30T06:32:56;101038.75;;;13.08;88.63
5966;BME280;3009;43.224;27.976;2022-10-30T06:35:27;101034.03;;;13.14;87.94
5966;BME280;3009;43.224;27.976;2022-10-30T06:37:55;101045.47;;;13.19;87.99
5966;BME280;3009;43.224;27.976;2022-10-30T06:40:26;101036.81;;;13.31;87.79
5966;BME280;3009;43.224;27.976;2022-10-30T06:42:56;101044.50;;;13.38;87.16
5966;BME280;3009;43.224;27.976;2022-10-30T06:45:25;101044.66;;;13.41;86.53
5966;BME280;3009;43.224;27.976;2022-10-30T06:47:53;101046.72;;;13.44;84.82
5966;BME280;3009;43.224;27.976;2022-10-30T06:50:22;101041.50;;;13.48;85.68
5966;BME280;3009;43.224;27.976;2022-10-30T06:52:52;101045.81;;;13.58;85.59
5966;BME280;3009;43.224;27.976;2022-10-30T06:55:21;101039.84;;;13.70;84.54
5966;BME280;3009;43.224;27.976;2022-10-30T06:57:53;101038.09;;;13.74;84.09
5966;BME280;3009;43.224;27.976;2022-10-30T07:00:23;101034.00;;;13.76;83.48
5966;BME280;3009;43.224;27.976;2022-10-30T07:02:57;101035.13;;;13.84;83.87
5966;BME280;3009;43.224;27.976;2022-10-30T07:05:26;101030.69;;;13.88;84.58
5966;BME280;3009;43.224;27.976;2022-10-30T07:07:57;101025.31;;;13.97;84.56
5966;BME280;3009;43.224;27.976;2022-10-30T07:10:25;101017.38;;;14.00;81.82
5966;BME280;3009;43.224;27.976;2022-10-30T07:12:54;101022.66;;;14.06;81.60
5966;BME280;3009;43.224;27.976;2022-10-30T07:15:23;101017.88;;;14.20;81.90
5966;BME280;3009;43.224;27.976;2022-10-30T07:17:55;101012.50;;;14.38;81.90
5966;BME280;3009;43.224;27.976;2022-10-30T07:20:26;101014.25;;;14.51;80.85
5966;BME280;3009;43.224;27.976;2022-10-30T07:22:56;101015.03;;;14.60;79.28
5966;BME280;3009;43.224;27.976;2022-10-30T07:25:25;101012.03;;;14.70;77.05
5966;BME280;3009;43.224;27.976;2022-10-30T07:27:54;101000.88;;;14.81;75.59
5966;BME280;3009;43.224;27.976;2022-10-30T07:30:25;101001.03;;;14.93;73.86
5966;BME280;3009;43.224;27.976;2022-10-30T07:32:58;100997.03;;;14.99;73.53
5966;BME280;3009;43.224;27.976;2022-10-30T07:35:29;101004.41;;;15.20;72.09
5966;BME280;3009;43.224;27.976;2022-10-30T07:38:02;100998.63;;;15.39;71.35
5966;BME280;3009;43.224;27.976;2022-10-30T07:40:31;100990.28;;;15.53;69.83
5966;BME280;3009;43.224;27.976;2022-10-30T07:43:00;100981.59;;;15.68;69.16
5966;BME280;3009;43.224;27.976;2022-10-30T07:45:29;100996.97;;;15.85;68.21
5966;BME280;3009;43.224;27.976;2022-10-30T07:47:58;100980.22;;;15.92;67.22
5966;BME280;3009;43.224;27.976;2022-10-30T07:50:27;100977.31;;;15.97;67.72
5966;BME280;3009;43.224;27.976;2022-10-30T07:52:55;100977.56;;;16.04;67.10
5966;BME280;3009;43.224;27.976;2022-10-30T07:55:26;100972.78;;;16.10;67.30
5966;BME280;3009;43.224;27.976;2022-10-30T07:57:55;100969.34;;;16.22;66.45
5966;BME280;3009;43.224;27.976;2022-10-30T08:00:24;100967.41;;;16.22;66.45
5966;BME280;3009;43.224;27.976;2022-10-30T08:02:55;100962.94;;;16.26;65.98
5966;BME280;3009;43.224;27.976;2022-10-30T08:05:25;100962.25;;;16.29;65.67
5966;BME280;3009;43.224;27.976;2022-10-30T08:07:55;100954.53;;;16.40;65.21
5966;BME280;3009;43.224;27.976;2022-10-30T08:10:26;100953.41;;;16.41;65.64
5966;BME280;3009;43.224;27.976;2022-10-30T08:12:54;100953.63;;;16.48;65.56
5966;BME280;3009;43.224;27.976;2022-10-30T08:15:22;100956.47;;;16.52;64.75
5966;BME280;3009;43.224;27.976;2022-10-30T08:17:51;100956.03;;;16.50;64.77
5966;BME280;3009;43.224;27.976;2022-10-30T08:20:20;100957.06;;;16.58;64.90
5966;BME280;3009;43.224;27.976;2022-10-30T08:22:50;100953.44;;;16.54;65.21
5966;BME280;3009;43.224;27.976;2022-10-30T08:25:20;100940.94;;;16.61;64.78
5966;BME280;3009;43.224;27.976;2022-10-30T08:27:54;100951.19;;;16.68;64.02
5966;BME280;3009;43.224;27.976;2022-10-30T08:30:24;100947.13;;;16.62;63.88
5966;BME280;3009;43.224;27.976;2022-10-30T08:32:55;100948.72;;;16.63;64.24
5966;BME280;3009;43.224;27.976;2022-10-30T08:35:25;100944.81;;;16.73;64.02
5966;BME280;3009;43.224;27.976;2022-10-30T08:37:54;100943.22;;;16.72;64.05
5966;BME280;3009;43.224;27.976;2022-10-30T08:40:23;100938.38;;;16.77;64.48
5966;BME280;3009;43.224;27.976;2022-10-30T08:42:54;100939.84;;;16.75;65.13
5966;BME280;3009;43.224;27.976;2022-10-30T08:45:23;100936.50;;;16.90;64.32
5966;BME280;3009;43.224;27.976;2022-10-30T08:47:57;100932.56;;;17.00;64.25
5966;BME280;3009;43.224;27.976;2022-10-30T08:50:27;100931.22;;;17.18;64.25
5966;BME280;3009;43.224;27.976;2022-10-30T08:52:55;100929.06;;;17.36;63.33
5966;BME280;3009;43.224;27.976;2022-10-30T08:55:23;100929.72;;;17.46;62.82
5966;BME280;3009;43.224;27.976;2022-10-30T08:57:53;100923.16;;;17.59;62.35
5966;BME280;3009;43.224;27.976;2022-10-30T09:00:21;100923.66;;;17.77;61.86
5966;BME280;3009;43.224;27.976;2022-10-30T09:02:49;100923.88;;;17.97;60.73
5966;BME280;3009;43.224;27.976;2022-10-30T09:05:18;100925.22;;;18.19;60.06
5966;BME280;3009;43.224;27.976;2022-10-30T09:07:46;100922.94;;;18.49;58.44
5966;BME280;3009;43.224;27.976;2022-10-30T09:10:15;100920.66;;;18.51;57.97
5966;BME280;3009;43.224;27.976;2022-10-30T09:12:43;100918.72;;;18.52;57.64
5966;BME280;3009;43.224;27.976;2022-10-30T09:15:12;100914.72;;;18.62;57.35
5966;BME280;3009;43.224;27.976;2022-10-30T09:17:40;100910.44;;;18.60;57.25
5966;BME280;3009;43.224;27.976;2022-10-30T09:20:09;100901.16;;;18.62;57.64
5966;BME280;3009;43.224;27.976;2022-10-30T09:22:39;100900.34;;;18.61;57.46
5966;BME280;3009;43.224;27.976;2022-10-30T09:25:08;100896.84;;;18.60;55.63
5966;BME280;3009;43.224;27.976;2022-10-30T09:27:37;100897.03;;;18.68;56.48
5966;BME280;3009;43.224;27.976;2022-10-30T09:30:06;100884.50;;;18.63;56.62
5966;BME280;3009;43.224;27.976;2022-10-30T09:32:35;100884.59;;;18.67;55.99
5966;BME280;3009;43.224;27.976;2022-10-30T09:35:04;100883.44;;;18.68;56.47
5966;BME280;3009;43.224;27.976;2022-10-30T09:37:33;100869.16;;;18.71;56.09
5966;BME280;3009;43.224;27.976;2022-10-30T09:40:02;100876.25;;;18.75;56.38
5966;BME280;3009;43.224;27.976;2022-10-30T09:42:40;100864.88;;;18.70;56.12
5966;BME280;3009;43.224;27.976;2022-10-30T09:48:39;100859.97;;;18.59;55.78
5966;BME280;3009;43.224;27.976;2022-10-30T09:51:21;100854.88;;;18.42;56.25
5966;BME280;3009;43.224;27.976;2022-10-30T09:54:03;100849.81;;;18.40;56.84
5966;BME280;3009;43.224;27.976;2022-10-30T09:56:41;100852.34;;;18.49;55.63
5966;BME280;3009;43.224;27.976;2022-10-30T09:59:20;100848.66;;;18.41;55.75
5966;BME280;3009;43.224;27.976;2022-10-30T10:02:00;100842.06;;;18.27;55.83
5966;BME280;3009;43.224;27.976;2022-10-30T10:04:38;100840.63;;;18.45;55.58
5966;BME280;3009;43.224;27.976;2022-10-30T10:07:15;100834.31;;;18.41;55.66
5966;BME280;3009;43.224;27.976;2022-10-30T10:09:47;100841.47;;;18.49;55.26
5966;BME280;3009;43.224;27.976;2022-10-30T10:12:23;100841.94;;;18.51;54.93
5966;BME280;3009;43.224;27.976;2022-10-30T10:14:55;100839.91;;;18.64;54.80
5966;BME280;3009;43.224;27.976;2022-10-30T10:17:34;100839.66;;;18.69;54.80
5966;BME280;3009;43.224;27.976;2022-10-30T10:20:14;100828.84;;;18.73;54.24
5966;BME280;3009;43.224;27.976;2022-10-30T10:22:46;100827.63;;;18.70;54.00
5966;BME280;3009;43.224;27.976;2022-10-30T10:25:17;100826.50;;;18.71;54.02
5966;BME280;3009;43.224;27.976;2022-10-30T10:27:59;100819.94;;;18.72;54.39
5966;BME280;3009;43.224;27.976;2022-10-30T10:30:37;100818.16;;;18.80;54.02
5966;BME280;3009;43.224;27.976;2022-10-30T10:33:30;100823.69;;;19.00;53.24
5966;BME280;3009;43.224;27.976;2022-10-30T10:36:22;100824.56;;;19.04;52.81
5966;BME280;3009;43.224;27.976;2022-10-30T10:41:59;100815.25;;;19.24;51.88
5966;BME280;3009;43.224;27.976;2022-10-30T10:44:38;100814.19;;;19.29;51.99
5966;BME280;3009;43.224;27.976;2022-10-30T10:47:26;100824.00;;;19.34;51.18
5966;BME280;3009;43.224;27.976;2022-10-30T10:50:09;100815.00;;;19.29;58.24
5966;BME280;3009;43.224;27.976;2022-10-30T10:52:46;100817.53;;;19.03;66.92
5966;BME280;3009;43.224;27.976;2022-10-30T10:55:20;100815.44;;;18.64;70.99
5966;BME280;3009;43.224;27.976;2022-10-30T10:57:50;100815.56;;;18.52;71.47
5966;BME280;3009;43.224;27.976;2022-10-30T11:00:21;100809.50;;;18.27;75.28
5966;BME280;3009;43.224;27.976;2022-10-30T11:02:57;100807.22;;;17.97;78.00
5966;BME280;3009;43.224;27.976;2022-10-30T11:05:31;100801.16;;;17.75;78.94
5966;BME280;3009;43.224;27.976;2022-10-30T11:08:10;100801.50;;;17.74;79.66
5966;BME280;3009;43.224;27.976;2022-10-30T11:10:40;100803.34;;;17.69;79.62
5966;BME280;3009;43.224;27.976;2022-10-30T11:13:10;100802.56;;;17.69;80.64
5966;BME280;3009;43.224;27.976;2022-10-30T11:15:46;100797.75;;;17.62;80.99
5966;BME280;3009;43.224;27.976;2022-10-30T11:18:18;100801.47;;;17.58;80.93
5966;BME280;3009;43.224;27.976;2022-10-30T11:20:55;100802.56;;;17.69;81.36
5966;BME280;3009;43.224;27.976;2022-10-30T11:23:34;100795.38;;;17.61;81.78
5966;BME280;3009;43.224;27.976;2022-10-30T11:26:25;100789.75;;;17.53;82.10
5966;BME280;3009;43.224;27.976;2022-10-30T11:28:56;100785.44;;;17.52;81.81
5966;BME280;3009;43.224;27.976;2022-10-30T11:31:26;100784.41;;;17.57;81.41
5966;BME280;3009;43.224;27.976;2022-10-30T11:34:35;100776.72;;;17.59;82.02
5966;BME280;3009;43.224;27.976;2022-10-30T11:37:04;100773.69;;;17.61;81.86
5966;BME280;3009;43.224;27.976;2022-10-30T11:40:04;100776.72;;;17.59;81.34
5966;BME280;3009;43.224;27.976;2022-10-30T11:42:33;100783.44;;;17.49;81.60
5966;BME280;3009;43.224;27.976;2022-10-30T11:45:03;100779.03;;;17.45;82.09
5966;BME280;3009;43.224;27.976;2022-10-30T11:47:34;100781.66;;;17.41;82.84
5966;BME280;3009;43.224;27.976;2022-10-30T11:50:05;100781.19;;;17.39;83.46
5966;BME280;3009;43.224;27.976;2022-10-30T11:52:36;100775.25;;;17.33;83.74
5966;BME280;3009;43.224;27.976;2022-10-30T11:55:14;100781.44;;;17.34;82.33
5966;BME280;3009;43.224;27.976;2022-10-30T11:57:45;100775.94;;;17.30;82.50
5966;BME280;3009;43.224;27.976;2022-10-30T12:00:18;100778.19;;;17.28;82.66
5966;BME280;3009;43.224;27.976;2022-10-30T12:02:48;100768.25;;;17.32;83.50
5966;BME280;3009;43.224;27.976;2022-10-30T12:05:34;100767.75;;;17.43;83.44
5966;BME280;3009;43.224;27.976;2022-10-30T12:08:18;100766.09;;;17.38;83.62
5966;BME280;3009;43.224;27.976;2022-10-30T12:10:57;100772.00;;;17.28;82.98
5966;BME280;3009;43.224;27.976;2022-10-30T12:13:32;100768.50;;;17.15;82.55
5966;BME280;3009;43.224;27.976;2022-10-30T12:16:06;100762.66;;;17.13;82.26
5966;BME280;3009;43.224;27.976;2022-10-30T12:18:35;100765.47;;;17.16;81.56
5966;BME280;3009;43.224;27.976;2022-10-30T12:21:04;100764.25;;;17.14;81.43
5966;BME280;3009;43.224;27.976;2022-10-30T12:23:33;100765.03;;;17.14;79.79
5966;BME280;3009;43.224;27.976;2022-10-30T12:26:09;100767.03;;;17.17;77.77
5966;BME280;3009;43.224;27.976;2022-10-30T12:28:38;100767.72;;;17.14;78.47
5966;BME280;3009;43.224;27.976;2022-10-30T12:31:11;100766.84;;;17.10;79.37
5966;BME280;3009;43.224;27.976;2022-10-30T12:33:44;100771.47;;;17.10;79.97
5966;BME280;3009;43.224;27.976;2022-10-30T12:36:19;100775.00;;;16.98;81.35
5966;BME280;3009;43.224;27.976;2022-10-30T12:38:51;100778.72;;;16.93;82.06
5966;BME280;3009;43.224;27.976;2022-10-30T12:41:25;100772.28;;;16.98;81.64
5966;BME280;3009;43.224;27.976;2022-10-30T12:43:58;100761.00;;;16.96;80.71
5966;BME280;3009;43.224;27.976;2022-10-30T12:46:32;100759.31;;;16.91;80.89
5966;BME280;3009;43.224;27.976;2022-10-30T12:49:09;100769.25;;;16.87;81.08
5966;BME280;3009;43.224;27.976;2022-10-30T12:51:48;100770.16;;;16.79;81.62
5966;BME280;3009;43.224;27.976;2022-10-30T12:54:23;100769.00;;;16.80;82.66
5966;BME280;3009;43.224;27.976;2022-10-30T12:57:02;100755.03;;;16.78;83.56
5966;BME280;3009;43.224;27.976;2022-10-30T12:59:39;100768.22;;;16.79;83.17
5966;BME280;3009;43.224;27.976;2022-10-30T13:02:21;100771.19;;;16.74;83.72
5966;BME280;3009;43.224;27.976;2022-10-30T13:04:53;100766.41;;;16.59;83.86
5966;BME280;3009;43.224;27.976;2022-10-30T13:07:29;100753.34;;;16.61;84.26
5966;BME280;3009;43.224;27.976;2022-10-30T13:10:09;100760.81;;;16.64;82.64
5966;BME280;3009;43.224;27.976;2022-10-30T13:12:44;100761.25;;;16.66;81.92
5966;BME280;3009;43.224;27.976;2022-10-30T13:15:16;100765.75;;;16.62;82.59
5966;BME280;3009;43.224;27.976;2022-10-30T13:17:48;100764.41;;;16.56;83.39
5966;BME280;3009;43.224;27.976;2022-10-30T13:20:17;100758.09;;;16.52;87.19
5966;BME280;3009;43.224;27.976;2022-10-30T13:22:50;100762.16;;;16.58;88.05
5966;BME280;3009;43.224;27.976;2022-10-30T13:25:21;100762.03;;;16.54;87.82
5966;BME280;3009;43.224;27.976;2022-10-30T13:27:56;100761.25;;;16.54;88.67
5966;BME280;3009;43.224;27.976;2022-10-30T13:30:30;100760.91;;;16.43;88.71